• Join FlightAware (Why Join?)
  • Login
  • US Flag 
06:09PM EDT


 

Airport Tracker/Info


-or-


 

Live Flight TrackerFlight Track Log ✈ EJA951 ✈ 06-Nov-2013 ✈ KIAH - KSLC

Flight Track Log - Related Links

Times and Time Zones

All times are in EST time to prevent confusion due to time zone crossing. See the EJA951 flight status page for this flight to view local times or setup timezone preferences in your user account.

Time Position Orientation Groundspeed Altitude Reporting Facility
EST Latitude Longitude Course Direction KTS MPH feet Rate Location/Type
05:56PM 29.9839 -95.3553 356° North 155 178 1,100  Level Houston Center
05:56PM 30.0303 -95.3594 356° North 199 229 3,800 2,100 Climbing Houston Center
05:57PM 30.0461 -95.3608 356° North 192 221 3,900 180 Climbing Houston Center
05:57PM 30.1011 -95.3533 North 275 316 4,000  Climbing Houston Center
05:58PM 30.1217 -95.3511 North 255 293 3,900 2,220 Descending Houston Center
05:59PM 30.2000 -95.3900 337° Northwest 258 297 7,300 3,000 Climbing Houston Center
06:00PM 30.2606 -95.4372 326° Northwest 261 300 10,100 2,100 Climbing Houston Center
06:01PM 30.3256 -95.4869 327° Northwest 272 313 11,700 1,260 Climbing Houston Center
06:02PM 30.4022 -95.5472 326° Northwest 324 373 12,800 1,200 Climbing Houston Center
06:03PM 30.4864 -95.6122 326° Northwest 356 410 14,300 1,440 Climbing Houston Center
06:04PM 30.5936 -95.6828 330° Northwest 370 426 15,800 1,260 Climbing Houston Center
06:05PM 30.6986 -95.7386 335° Northwest 389 448 17,000 1,200 Climbing Houston Center
06:06PM 30.8006 -95.7939 335° Northwest 400 460 18,300 1,140 Climbing Houston Center
06:07PM 30.9033 -95.8486 335° Northwest 404 465 19,400 1,080 Climbing Houston Center
06:08PM 31.0089 -95.9053 335° Northwest 413 475 20,600 1,440 Climbing Houston Center
06:09PM 31.1128 -95.9608 335° Northwest 410 472 22,400 1,200 Climbing Houston Center
06:10PM 31.2231 -96.0053 341° North 416 479 23,100 720 Climbing Houston Center
06:11PM 31.3411 -96.0517 341° North 439 505 24,000 1,020 Climbing Houston Center
06:12PM 31.4781 -96.1044 342° North 449 517 25,300 960 Climbing Houston Center
06:13PM 31.6089 -96.1211 354° North 485 558 26,100 840 Climbing Houston Center
06:14PM 31.7225 -96.1239 359° North 478 550 26,800 960 Climbing Fort Worth Center
06:15PM 31.8433 -96.1197 North 490 564 27,800 960 Climbing Fort Worth Center
06:16PM 31.9814 -96.1203 360° North 490 564 28,800 780 Climbing Fort Worth Center
06:17PM 32.1192 -96.1331 356° North 490 564 29,400 660 Climbing Fort Worth Center
06:18PM 32.2428 -96.1853 340° North 489 563 30,200 1,080 Climbing Fort Worth Center
06:19PM 32.3253 -96.2947 312° West 455 524 31,600 1,500 Climbing Fort Worth Center
06:20PM 32.3950 -96.4072 306° West 429 494 33,200 1,500 Climbing Fort Worth Center
06:21PM 32.4650 -96.5172 307° West 423 487 34,700 1,380 Climbing Fort Worth Center
06:22PM 32.5344 -96.6272 307° West 423 487 36,000 1,260 Climbing Fort Worth Center
06:23PM 32.6083 -96.7400 308° West 429 494 37,300 1,260 Climbing Fort Worth Center
06:24PM 32.6797 -96.8506 308° West 429 494 38,600 1,260 Climbing Fort Worth Center
06:25PM 32.7492 -96.9614 307° West 429 494 39,900 660 Climbing Fort Worth Center
06:26PM 32.8308 -97.0869 308° West 434 499 40,000  Climbing Fort Worth Center
06:27PM 32.9064 -97.2056 307° West 434 499 40,000  Level Fort Worth Center
06:28PM 32.9942 -97.3094 315° West 464 534 40,000  Level Fort Worth Center
06:29PM 33.0983 -97.4433 313° West 492 566 40,000  Level Fort Worth Center
06:30PM 33.1861 -97.5575 313° West 486 559 40,000  Level Fort Worth Center
06:31PM 33.2778 -97.6719 314° West 481 554 40,000  Level Fort Worth Center
06:32PM 33.3672 -97.7889 313° West 481 554 40,000  Level Fort Worth Center
06:33PM 33.4586 -97.9039 314° West 476 548 40,000  Level Fort Worth Center
06:34PM 33.5458 -98.0192 312° West 476 548 40,000  Level Fort Worth Center
06:35PM 33.6369 -98.1344 314° West 476 548 40,000  Level Fort Worth Center
06:36PM 33.7239 -98.2475 313° West 470 541 40,000  Level Fort Worth Center
06:37PM 33.8108 -98.3633 312° West 470 541 40,000  Level Fort Worth Center
06:38PM 33.9017 -98.4794 313° West 470 541 40,000  Level Fort Worth Center
06:39PM 33.9861 -98.5958 311° West 470 541 40,000  Level Fort Worth Center
06:40PM 34.0475 -98.7269 299° West 465 535 40,000  Level Fort Worth Center
06:41PM 34.0942 -98.8556 294° West 452 520 40,000  Level Fort Worth Center
06:42PM 34.1508 -98.9894 297° West 452 520 40,000  Level Fort Worth Center
06:43PM 34.2075 -99.1186 298° West 451 519 40,000  Level Fort Worth Center
06:44PM 34.2619 -99.2531 296° West 440 506 40,000  Level Fort Worth Center
06:45PM 34.3183 -99.3900 297° West 451 519 40,000 300 Level Fort Worth Center
06:46PM 34.3975 -99.5250 305° West 446 513 40,600 720 Climbing Fort Worth Center
06:47PM 34.4664 -99.6503 304° West 446 513 41,500 900 Climbing Fort Worth Center
06:49PM 34.5778 -99.8506 304° West 437 503 43,000 540 Climbing Albuquerque Center
06:50PM 34.6458 -99.9722 304° West 434 499 43,000  Level Albuquerque Center
06:51PM 34.7175 -100.0989 305° West 445 512 43,000  Level Albuquerque Center
06:52PM 34.7892 -100.2261 304° West 452 520 43,000  Level Albuquerque Center
06:53PM 34.8608 -100.3550 304° West 456 525 43,000  Level Albuquerque Center
06:54PM 34.9358 -100.4892 304° West 458 527 43,000  Level Albuquerque Center
06:55PM 35.0061 -100.6178 304° West 458 527 43,000  Level Albuquerque Center
06:56PM 35.0781 -100.7464 304° West 460 529 43,000  Level Albuquerque Center
06:57PM 35.1486 -100.8756 304° West 458 527 43,000  Level Albuquerque Center
06:58PM 35.2328 -101.0308 304° West 459 528 43,000  Level Albuquerque Center
06:59PM 35.3033 -101.1589 304° West 458 527 43,000  Level Albuquerque Center
07:00PM 35.3739 -101.2883 304° West 459 528 43,000  Level Albuquerque Center
07:01PM 35.4475 -101.4239 304° West 462 532 43,000  Level Albuquerque Center
07:02PM 35.5119 -101.5431 304° West 457 526 43,000  Level Albuquerque Center
07:03PM 35.5931 -101.6972 303° West 453 521 43,000  Level Albuquerque Center
07:04PM 35.6614 -101.8253 303° West 453 521 43,000  Level Albuquerque Center
07:05PM 35.7306 -101.9539 304° West 454 522 43,000  Level Albuquerque Center
07:06PM 35.7986 -102.0842 303° West 454 522 43,000  Level Albuquerque Center
07:07PM 35.8653 -102.2122 303° West 449 517 43,000  Level Albuquerque Center
07:08PM 35.9339 -102.3428 303° West 452 520 43,000  Level Albuquerque Center
07:09PM 36.0153 -102.4967 303° West 449 517 43,000  Level Albuquerque Center
07:10PM 36.0822 -102.6269 302° West 449 517 43,000  Level Albuquerque Center
07:11PM 36.1497 -102.7556 303° West 448 516 43,000  Level Albuquerque Center
07:12PM 36.2214 -102.8942 303° West 445 512 43,000  Level Albuquerque Center
07:13PM 36.2889 -103.0239 303° West 446 513 43,000  Level Albuquerque Center
07:14PM 36.3556 -103.1531 303° West 443 510 43,000  Level Albuquerque Center
07:16PM 36.4219 -103.2822 303° West 443 510 43,000  Level Albuquerque Center
07:17PM 36.4872 -103.4119 302° West 441 507 43,000  Level Albuquerque Center
07:18PM 36.5542 -103.5439 302° West 446 513 43,000  Level Albuquerque Center
07:19PM 36.6200 -103.6747 302° West 445 512 43,000  Level Albuquerque Center
07:20PM 36.6936 -103.8194 302° West 446 513 43,000  Level Albuquerque Center
07:21PM 36.7569 -103.9481 302° West 450 518 43,000  Level Albuquerque Center
07:22PM 36.8322 -104.0947 303° West 449 517 43,000  Level Albuquerque Center
07:23PM 36.8961 -104.2225 302° West 450 518 43,000  Level Albuquerque Center
07:24PM 36.9597 -104.3508 302° West 452 520 43,000  Level Albuquerque Center
07:24PM 37.0125 -104.4594 301° West 454 522 43,000  Level Denver Center
07:26PM 37.0767 -104.5892 302° West 455 524 43,100  Climbing Denver Center
07:27PM 37.1511 -104.7394 302° West 453 521 43,000 -60 Descending Denver Center
07:28PM 37.2142 -104.8714 301° West 457 526 43,000  Level Denver Center
07:29PM 37.2881 -105.0225 302° West 455 524 43,000  Level Denver Center
07:30PM 37.3511 -105.1522 301° West 453 521 43,000  Level Denver Center
07:31PM 37.4164 -105.2869 301° West 447 514 43,000  Level Denver Center
07:32PM 37.4883 -105.4372 301° West 448 516 43,000  Level Denver Center
07:33PM 37.5572 -105.5786 302° West 445 512 43,000  Level Denver Center
07:34PM 37.6175 -105.7064 301° West 442 509 43,000  Level Denver Center
07:35PM 37.6792 -105.8350 301° West 445 512 43,000  Level Denver Center
07:36PM 37.7508 -105.9864 301° West 446 513 43,000  Level Denver Center
07:37PM 37.8117 -106.1147 301° West 446 513 43,000  Level Denver Center
07:38PM 37.8803 -106.2647 300° West 441 507 43,000  Level Denver Center
07:39PM 37.9411 -106.3933 301° West 442 509 43,000  Level Denver Center
07:40PM 38.0131 -106.5497 300° West 443 510 43,000  Level Denver Center
07:41PM 38.0744 -106.6806 301° West 450 518 43,000  Level Denver Center
07:42PM 38.1350 -106.8108 301° West 448 516 43,000  Level Denver Center
07:43PM 38.1997 -106.9533 300° West 451 519 43,000  Level Denver Center
07:44PM 38.2628 -107.0903 300° West 448 516 43,000  Level Denver Center
07:45PM 38.3336 -107.2506 299° West 450 518 43,000  Level Denver Center
07:46PM 38.3944 -107.3836 300° West 453 521 43,000  Level Denver Center
07:47PM 38.4642 -107.5386 300° West 451 519 43,000  Level Denver Center
07:48PM 38.5239 -107.6731 300° West 454 522 43,000  Level Denver Center
07:49PM 38.5936 -107.8289 300° West 452 520 43,000  Level Denver Center
07:50PM 38.6528 -107.9625 300° West 451 519 43,000  Level Denver Center
07:51PM 38.7219 -108.1183 300° West 450 518 43,000  Level Denver Center
07:52PM 38.7808 -108.2528 299° West 451 519 43,000  Level Denver Center
07:53PM 38.8492 -108.4100 299° West 451 519 43,000  Level Denver Center
07:54PM 38.9075 -108.5444 299° West 450 518 43,000  Level Denver Center
07:56PM 38.9658 -108.6778 299° West 447 514 43,000 -120 Level Denver Center
07:57PM 39.0339 -108.8356 299° West 449 517 42,800 -780 Descending Denver Center
07:58PM 39.0917 -108.9689 299° West 445 512 41,400 -1,500 Descending Denver Center
07:59PM 39.1600 -109.1278 299° West 451 519 39,700 -1,560 Descending Denver Center
08:00PM 39.2181 -109.2658 299° West 453 521 38,200 -1,560 Descending Denver Center
08:01PM 39.2861 -109.4253 299° West 452 520 36,500 -1,560 Descending Denver Center
08:02PM 39.3444 -109.5644 298° West 457 526 35,000 -1,440 Descending Denver Center
08:03PM 39.4047 -109.7075 299° West 467 537 33,600 -1,500 Descending Denver Center
08:04PM 39.4775 -109.8792 299° West 481 554 32,000 -780 Descending Denver Center
08:05PM 39.5381 -110.0242 298° West 480 552 32,000  Level Denver Center
08:06PM 39.6075 -110.1931 298° West 476 548 32,000  Level Denver Center
08:07PM 39.6678 -110.3375 298° West 475 547 32,000 -180 Level Denver Center
08:08PM 39.7364 -110.5069 298° West 476 548 31,700 -1,200 Descending Denver Center
08:09PM 39.8131 -110.6997 297° West 471 542 29,200 -1,800 Descending Salt Lake Center
08:10PM 39.8678 -110.8444 296° West 467 537 27,500 -1,860 Descending Salt Lake Center
08:11PM 39.9278 -111.0053 296° West 448 516 25,500 -1,860 Descending Salt Lake Center
08:12PM 39.9792 -111.1400 296° West 438 504 23,800 -1,800 Descending Salt Lake Center
08:13PM 40.0364 -111.2947 296° West 425 489 21,900 -1,680 Descending Salt Lake Center
08:14PM 40.0814 -111.4167 296° West 417 480 20,400 -1,500 Descending Salt Lake Center
08:15PM 40.1319 -111.5667 294° West 411 473 19,000 -1,380 Descending Salt Lake Center
08:15PM 40.1314 -111.5511 93° East 412 474 19,000  Level Salt Lake Center
08:16PM 40.1614 -111.6492 292° West 410 472 19,000  Level Salt Lake Center
08:16PM 40.1928 -111.7119 303° West 411 473 19,000  Level Salt Lake Center
08:17PM 40.2225 -111.7717 303° West 405 466 19,000  Level Salt Lake Center
08:17PM 40.2656 -111.8256 316° Northwest 402 463 19,000 -540 Level Salt Lake Center
08:18PM 40.2978 -111.8783 309° West 397 457 18,500 -1,320 Descending Salt Lake Center
08:18PM 40.3381 -111.9308 315° West 391 450 17,700 -2,100 Descending Salt Lake Center
08:19PM 40.3733 -111.9878 309° West 397 457 16,400 -2,460 Descending Salt Lake Center
08:20PM 40.4167 -112.0331 322° Northwest 398 458 15,200 -2,700 Descending Salt Lake Center
08:20PM 40.4678 -112.0631 336° Northwest 391 450 13,700 -2,340 Descending Salt Lake Center
08:21PM 40.5211 -112.0647 359° North 384 442 12,800 -1,920 Descending Salt Lake Center
08:21PM 40.5714 -112.0758 350° North 371 427 11,800 -1,800 Descending Salt Lake Center
08:22PM 40.6228 -112.0781 358° North 365 420 11,000 -840 Descending Salt Lake Center
08:22PM 40.6706 -112.0878 351° North 329 379 11,000  Level Salt Lake Center
08:23PM 40.7083 -112.0878 360° North 290 334 11,000  Level Salt Lake Center
08:23PM 40.7450 -112.0936 353° North 256 295 11,000  Level Salt Lake Center
08:24PM 40.7750 -112.0939 360° North 239 275 11,000 -120 Level Salt Lake Center
08:24PM 40.8108 -112.0997 353° North 236 272 10,900 -1,020 Descending Salt Lake Center
08:25PM 40.8528 -112.0933 North 231 266 10,000 -1,380 Descending Salt Lake Center
08:25PM 40.8761 -112.0919 North 230 265 9,500 -1,800 Descending Salt Lake Center
08:26PM 40.9153 -112.0864 North 225 259 8,200 -1,920 Descending Salt Lake Center
08:26PM 40.9336 -112.0667 39° Northeast 233 268 7,600 -1,800 Descending Salt Lake Center
08:27PM 40.9308 -112.0125 94° East 237 273 6,400 -1,620 Descending Salt Lake Center
08:27PM 40.9239 -111.9847 108° East 235 270 6,000 -540 Descending Salt Lake Center
08:28PM 40.8956 -111.9633 150° Southeast 197 227 5,900 -300 Descending Salt Lake Center
08:28PM 40.8789 -111.9633 180° South 164 189 5,700 -600 Descending Salt Lake Center
08:29PM 40.8544 -111.9625 179° South 149 171 5,300 -600 Descending Salt Lake Center
08:29PM 40.8425 -111.9644 187° South 131 151 5,100 -600 Descending Salt Lake Center
08:30PM 40.8200 -111.9617 175° South 126 145 4,700 -720 Descending Salt Lake Center
08:30PM 40.8056 -111.9628 183° South 131 151 4,400 -540 Descending Salt Lake Center
08:31PM 40.7861 -111.9619 178° South 123 142 4,200 -300 Descending Salt Lake Center